createdAt,value
2022-11-14T00:01:38.780Z,37.23
2022-11-14T00:04:47.519Z,35.70
2022-11-14T00:07:53.876Z,31.77
2022-11-14T00:11:01.126Z,36.77
2022-11-14T00:14:07.520Z,33.90
2022-11-14T00:17:13.471Z,32.93
2022-11-14T00:20:22.694Z,31.03
2022-11-14T00:23:29.126Z,32.27
2022-11-14T00:26:36.515Z,32.10
2022-11-14T00:29:42.272Z,34.90
2022-11-14T00:32:48.309Z,30.53
2022-11-14T00:35:55.655Z,28.70
2022-11-14T00:39:01.807Z,32.97
2022-11-14T00:42:09.387Z,32.00
2022-11-14T00:45:15.912Z,29.80
2022-11-14T00:48:21.913Z,32.37
2022-11-14T00:51:28.119Z,31.37
2022-11-14T00:54:34.476Z,33.73
2022-11-14T00:57:42.566Z,33.93
2022-11-14T01:00:48.646Z,31.57
2022-11-14T01:03:55.110Z,34.90
2022-11-14T01:07:01.671Z,32.77
2022-11-14T01:10:09.162Z,36.07
2022-11-14T01:13:17.976Z,34.80
2022-11-14T01:16:24.721Z,34.83
2022-11-14T01:19:31.039Z,32.47
2022-11-14T01:22:36.923Z,37.60
2022-11-14T01:25:45.208Z,40.47
2022-11-14T01:28:52.618Z,38.87
2022-11-14T01:31:58.735Z,37.93
2022-11-14T01:35:05.182Z,37.73
2022-11-14T01:38:14.539Z,40.67
2022-11-14T01:41:21.232Z,42.20
2022-11-14T01:44:47.452Z,41.93
2022-11-14T01:47:53.496Z,41.23
2022-11-14T01:51:06.223Z,43.07
2022-11-14T01:54:17.082Z,43.50
2022-11-14T01:57:26.565Z,43.07
2022-11-14T02:00:34.353Z,48.53
2022-11-14T02:03:43.890Z,44.90
2022-11-14T02:06:50.244Z,45.07
2022-11-14T02:09:56.529Z,43.53
2022-11-14T02:13:03.185Z,44.13
2022-11-14T02:16:10.845Z,44.27
2022-11-14T02:19:17.143Z,44.60
2022-11-14T02:22:24.717Z,44.23
2022-11-14T02:25:31.137Z,47.90
2022-11-14T02:28:37.342Z,45.87
2022-11-14T02:31:43.655Z,43.33
2022-11-14T02:34:49.883Z,47.30
2022-11-14T02:37:57.403Z,46.93
2022-11-14T02:41:04.142Z,46.00
2022-11-14T02:44:10.371Z,47.40
2022-11-14T02:47:16.216Z,43.63
2022-11-14T02:50:22.320Z,44.87
2022-11-14T02:53:29.761Z,44.27
2022-11-14T02:56:35.893Z,46.73
2022-11-14T02:59:41.817Z,48.43
2022-11-14T03:02:47.853Z,46.13
2022-11-14T03:05:53.728Z,44.63
2022-11-14T03:09:01.288Z,46.80
2022-11-14T03:12:08.298Z,47.77
2022-11-14T03:15:14.732Z,46.20
2022-11-14T03:18:20.939Z,44.83
2022-11-14T03:21:27.400Z,44.40
2022-11-14T03:24:35.559Z,43.07
2022-11-14T03:27:42.290Z,40.27
2022-11-14T03:30:48.247Z,42.27
2022-11-14T03:33:54.517Z,43.13
2022-11-14T03:37:01.069Z,41.57
2022-11-14T03:40:10.334Z,41.43
2022-11-14T03:43:16.812Z,42.20
2022-11-14T03:46:22.838Z,43.43
2022-11-14T03:49:29.264Z,42.53
2022-11-14T03:52:35.127Z,45.23
2022-11-14T03:55:44.873Z,44.60
2022-11-14T03:58:50.695Z,46.97
2022-11-14T04:01:56.746Z,46.50
2022-11-14T04:05:02.913Z,47.53
2022-11-14T04:08:09.236Z,43.03
2022-11-14T04:11:16.539Z,43.13
2022-11-14T04:14:22.924Z,40.13
2022-11-14T04:17:28.897Z,47.27
2022-11-14T04:20:35.121Z,43.10
2022-11-14T04:23:41.157Z,43.57
2022-11-14T04:26:48.665Z,43.43
2022-11-14T04:29:56.073Z,45.47
2022-11-14T04:33:01.938Z,46.27
2022-11-14T04:36:08.720Z,46.93
2022-11-14T04:39:15.152Z,43.83
2022-11-14T04:42:22.479Z,43.03
2022-11-14T04:45:28.561Z,43.63
2022-11-14T04:48:34.739Z,45.33
2022-11-14T04:51:41.088Z,43.90
2022-11-14T04:54:47.253Z,43.13
2022-11-14T04:57:57.057Z,40.80
2022-11-14T05:01:09.200Z,43.03
2022-11-14T05:04:15.823Z,40.73
2022-11-14T05:07:21.841Z,42.87
2022-11-14T05:10:28.188Z,41.73
2022-11-14T05:13:35.817Z,43.40
2022-11-14T05:16:41.558Z,42.03
2022-11-14T05:19:47.704Z,43.17
2022-11-14T05:22:55.527Z,43.43
2022-11-14T05:26:03.317Z,42.30
2022-11-14T05:29:10.848Z,43.63
2022-11-14T05:32:17.855Z,42.97
2022-11-14T05:35:24.215Z,39.87
2022-11-14T05:38:30.922Z,42.53
2022-11-14T05:41:37.538Z,43.13
2022-11-14T05:44:45.324Z,42.87
2022-11-14T05:47:53.860Z,43.90
2022-11-14T05:51:01.155Z,42.97
2022-11-14T05:54:07.938Z,42.23
2022-11-14T05:57:13.896Z,43.33
2022-11-14T06:00:21.499Z,42.50
2022-11-14T06:03:27.290Z,41.93
2022-11-14T06:06:33.687Z,40.33
2022-11-14T06:09:39.890Z,40.37
2022-11-14T06:12:46.108Z,39.13
2022-11-14T06:15:53.792Z,40.00
2022-11-14T06:19:00.099Z,36.97
2022-11-14T06:22:06.348Z,42.83
2022-11-14T06:25:12.378Z,42.30
2022-11-14T06:28:18.500Z,43.17
2022-11-14T06:31:26.426Z,41.50
2022-11-14T06:34:32.747Z,40.53
2022-11-14T06:37:38.994Z,42.57
2022-11-14T06:40:45.150Z,38.07
2022-11-14T06:43:53.007Z,38.93
2022-11-14T06:47:00.334Z,38.50
2022-11-14T06:50:07.040Z,39.40
2022-11-14T06:53:13.273Z,39.83
2022-11-14T06:56:20.358Z,38.87
2022-11-14T06:59:26.546Z,38.23
2022-11-14T07:02:33.978Z,37.80
2022-11-14T07:05:40.555Z,36.67
2022-11-14T07:08:46.690Z,38.30
2022-11-14T07:11:53.178Z,37.90
2022-11-14T07:14:59.492Z,37.60
2022-11-14T07:18:07.187Z,37.93
2022-11-14T07:21:14.356Z,38.47
2022-11-14T07:24:20.379Z,36.83
2022-11-14T07:27:26.548Z,38.37
2022-11-14T07:30:32.741Z,41.13
2022-11-14T07:33:41.116Z,38.83
2022-11-14T07:36:47.549Z,37.90
2022-11-14T07:39:53.833Z,37.63
2022-11-14T07:43:01.027Z,35.90
2022-11-14T07:46:10.103Z,36.50
2022-11-14T07:49:17.326Z,38.23
2022-11-14T07:52:23.952Z,35.73
2022-11-14T07:55:30.159Z,37.10
2022-11-14T07:58:37.054Z,35.20
2022-11-14T08:01:43.169Z,35.87
2022-11-14T08:04:50.684Z,35.90
2022-11-14T08:07:56.656Z,36.50
2022-11-14T08:11:03.441Z,36.97
2022-11-14T08:14:09.678Z,38.23
2022-11-14T08:17:16.033Z,36.63
2022-11-14T08:20:23.863Z,35.80
2022-11-14T08:23:29.782Z,35.97
2022-11-14T08:26:36.205Z,36.73
2022-11-14T08:29:42.552Z,32.50
2022-11-14T08:32:48.470Z,35.23
2022-11-14T08:35:55.970Z,34.10
2022-11-14T08:39:02.427Z,35.00
2022-11-14T08:42:08.799Z,36.13
2022-11-14T08:45:14.849Z,33.90
2022-11-14T08:48:20.877Z,32.47
2022-11-14T08:51:28.475Z,31.47
2022-11-14T08:54:34.746Z,31.90
2022-11-14T08:57:44.177Z,33.53
2022-11-14T09:00:54.301Z,32.37
2022-11-14T09:04:01.936Z,31.07
2022-11-14T09:07:09.876Z,34.17
2022-11-14T09:10:16.290Z,33.00
2022-11-14T09:13:22.376Z,33.53
2022-11-14T09:16:28.635Z,33.53
2022-11-14T09:19:34.884Z,33.20
2022-11-14T09:22:42.749Z,33.93
2022-11-14T09:25:48.524Z,34.07
2022-11-14T09:28:54.606Z,33.13
2022-11-14T09:32:00.916Z,35.17
2022-11-14T09:35:07.788Z,34.80
2022-11-14T09:38:15.612Z,34.53
2022-11-14T09:41:25.881Z,34.30
2022-11-14T09:45:06.625Z,33.90
2022-11-14T09:48:16.676Z,33.60
2022-11-14T09:51:25.469Z,34.27
2022-11-14T09:54:41.726Z,33.97
2022-11-14T09:57:48.343Z,35.30
2022-11-14T10:01:00.507Z,33.43
2022-11-14T10:04:20.745Z,33.40
2022-11-14T10:07:40.362Z,31.37
2022-11-14T10:10:54.684Z,32.73
2022-11-14T10:14:34.241Z,35.67
2022-11-14T10:18:00.618Z,35.10
2022-11-14T10:21:19.535Z,32.70
2022-11-14T10:24:44.744Z,33.25
2022-11-14T10:28:08.458Z,31.85
2022-11-14T10:31:25.461Z,31.47
2022-11-14T10:34:35.868Z,30.20
2022-11-14T10:37:54.445Z,31.80
2022-11-14T10:41:03.265Z,32.10
2022-11-14T10:44:17.520Z,32.85
2022-11-14T10:47:26.599Z,32.40
2022-11-14T10:50:41.537Z,31.52
2022-11-14T10:53:54.333Z,32.42
2022-11-14T10:57:00.482Z,34.15
2022-11-14T11:00:14.009Z,32.00
2022-11-14T11:03:19.968Z,34.40
2022-11-14T11:06:27.463Z,32.55
2022-11-14T11:09:50.947Z,33.30
2022-11-14T11:12:57.510Z,32.90
2022-11-14T11:16:06.304Z,32.75
2022-11-14T11:19:16.820Z,32.17
2022-11-14T11:22:29.387Z,32.38
2022-11-14T11:25:36.548Z,31.85
2022-11-14T11:28:43.286Z,31.75
2022-11-14T11:31:56.115Z,31.88
2022-11-14T11:35:04.741Z,32.47
2022-11-14T11:38:15.669Z,31.75
2022-11-14T11:44:59.791Z,29.33
2022-11-14T11:48:16.226Z,30.13
2022-11-14T11:51:26.990Z,30.02
2022-11-14T11:54:47.758Z,30.55
2022-11-14T11:58:03.397Z,30.63
2022-11-14T12:01:12.237Z,29.83
2022-11-14T12:04:22.597Z,29.25
2022-11-14T12:07:40.421Z,29.98
2022-11-14T12:10:46.477Z,29.02
2022-11-14T12:14:08.606Z,30.08
2022-11-14T12:17:51.042Z,27.80
2022-11-14T12:21:28.855Z,27.77
2022-11-14T12:25:06.525Z,29.73
2022-11-14T12:28:40.577Z,28.90
2022-11-14T12:31:48.298Z,29.23
2022-11-14T12:34:54.486Z,28.50
2022-11-14T12:38:05.073Z,28.17
2022-11-14T12:41:11.930Z,27.00
2022-11-14T12:44:19.793Z,26.88
2022-11-14T12:47:26.793Z,26.33
2022-11-14T12:50:42.181Z,27.75
2022-11-14T12:53:50.048Z,27.35
2022-11-14T12:57:09.924Z,27.38
2022-11-14T13:00:17.826Z,27.45
2022-11-14T13:03:48.818Z,25.98
2022-11-14T13:07:13.568Z,26.00
2022-11-14T13:10:28.887Z,27.20
2022-11-14T13:14:17.976Z,25.23
2022-11-14T13:17:45.764Z,26.63
2022-11-14T13:21:21.600Z,26.20
2022-11-14T13:24:27.856Z,25.83
2022-11-14T13:31:20.772Z,25.92
2022-11-14T13:34:47.346Z,26.02
2022-11-14T13:38:33.222Z,24.38
2022-11-14T13:42:22.498Z,25.33
2022-11-14T13:45:58.723Z,24.58
2022-11-14T13:49:29.148Z,24.63
2022-11-14T13:52:41.552Z,25.00
2022-11-14T13:55:57.497Z,25.30
2022-11-14T13:59:46.335Z,25.67
2022-11-14T14:03:11.980Z,25.55
2022-11-14T14:06:31.598Z,25.10
2022-11-14T14:09:45.372Z,23.75
2022-11-14T14:13:03.413Z,25.20
2022-11-14T14:16:16.991Z,25.98
2022-11-14T14:19:38.673Z,23.15
2022-11-14T14:22:54.580Z,26.10
2022-11-14T14:26:07.071Z,23.90
2022-11-14T14:29:24.283Z,24.55
2022-11-14T14:32:30.238Z,23.88
2022-11-14T14:35:40.896Z,23.58
2022-11-14T14:38:48.764Z,23.73
2022-11-14T14:41:58.261Z,24.95
2022-11-14T14:45:05.281Z,23.35
2022-11-14T14:48:15.626Z,24.70
2022-11-14T14:51:32.492Z,24.02
2022-11-14T14:54:40.191Z,25.23
2022-11-14T14:57:46.653Z,28.50
2022-11-14T15:00:56.047Z,34.50
2022-11-14T15:04:06.286Z,37.08
2022-11-14T15:07:22.482Z,35.10
2022-11-14T15:10:31.380Z,34.75
2022-11-14T15:13:39.280Z,34.38
2022-11-14T15:16:46.749Z,34.30
2022-11-14T15:19:54.665Z,32.47
2022-11-14T15:23:07.817Z,36.42
2022-11-14T15:26:18.979Z,42.38
2022-11-14T15:29:26.586Z,42.72
2022-11-14T15:32:33.785Z,40.15
2022-11-14T15:35:40.922Z,35.55
2022-11-14T15:39:02.787Z,35.75
2022-11-14T15:42:15.919Z,34.10
2022-11-14T15:45:23.335Z,35.03
2022-11-14T15:48:30.055Z,32.87
2022-11-14T15:51:43.652Z,29.57
2022-11-14T15:54:51.529Z,29.17
2022-11-14T15:58:21.361Z,31.17
2022-11-14T16:01:26.200Z,35.03
2022-11-14T16:04:36.889Z,39.05
2022-11-14T16:07:43.424Z,37.87
2022-11-14T16:10:51.001Z,35.37
2022-11-14T16:13:56.744Z,33.70
2022-11-14T16:17:02.801Z,34.20
2022-11-14T16:20:16.219Z,34.27
2022-11-14T16:23:22.510Z,36.10
2022-11-14T16:26:31.417Z,36.57
2022-11-14T16:29:39.361Z,37.37
2022-11-14T16:32:47.396Z,38.10
2022-11-14T16:35:53.487Z,38.23
2022-11-14T16:39:01.665Z,38.67
2022-11-14T16:42:12.589Z,35.93
2022-11-14T16:45:20.288Z,39.27
2022-11-14T16:48:26.905Z,36.60
2022-11-14T16:51:49.970Z,36.83
2022-11-14T16:54:56.951Z,33.07
2022-11-14T16:58:04.414Z,31.37
2022-11-14T17:01:20.046Z,31.53
2022-11-14T17:04:27.548Z,32.27
2022-11-14T17:07:33.938Z,32.73
2022-11-14T17:10:43.402Z,32.70
2022-11-14T17:13:51.043Z,32.50
2022-11-14T17:17:04.577Z,31.00
2022-11-14T17:20:11.966Z,28.93
2022-11-14T17:23:18.239Z,32.00
2022-11-14T17:26:25.127Z,34.03
2022-11-14T17:29:32.749Z,34.00
2022-11-14T17:32:39.293Z,37.40
2022-11-14T17:35:45.439Z,38.17
2022-11-14T17:38:52.069Z,42.87
2022-11-14T17:41:58.090Z,49.17
2022-11-14T17:45:06.102Z,47.70
2022-11-14T17:48:14.147Z,45.90
2022-11-14T17:51:20.003Z,46.17
2022-11-14T17:54:25.792Z,48.27
2022-11-14T17:57:32.239Z,46.43
2022-11-14T18:00:40.761Z,45.03
2022-11-14T18:03:46.870Z,44.80
2022-11-14T18:06:53.333Z,40.80
2022-11-14T18:09:59.615Z,41.87
2022-11-14T18:13:05.959Z,42.03
2022-11-14T18:16:15.869Z,42.07
2022-11-14T18:19:21.951Z,42.83
2022-11-14T18:22:28.650Z,45.47
2022-11-14T18:25:35.139Z,40.83
2022-11-14T18:28:41.733Z,42.37
2022-11-14T18:31:49.551Z,42.00
2022-11-14T18:34:55.940Z,43.17
2022-11-14T18:38:02.192Z,44.57
2022-11-14T18:41:10.531Z,44.30
2022-11-14T18:44:16.677Z,40.07
2022-11-14T18:47:24.519Z,41.40
2022-11-14T18:50:32.359Z,41.17
2022-11-14T18:53:38.557Z,40.40
2022-11-14T18:56:44.968Z,40.47
2022-11-14T18:59:51.207Z,44.13
2022-11-14T19:03:01.041Z,44.40
2022-11-14T19:06:13.486Z,40.57
2022-11-14T19:09:23.559Z,37.30
2022-11-14T19:12:30.087Z,33.47
2022-11-14T19:15:36.319Z,32.33
2022-11-14T19:18:43.818Z,31.70
2022-11-14T19:21:50.692Z,30.07
2022-11-14T19:24:57.914Z,27.63
2022-11-14T19:28:04.038Z,27.67
2022-11-14T19:31:11.421Z,29.13
2022-11-14T19:34:19.099Z,29.43
2022-11-14T19:37:25.867Z,28.27
2022-11-14T19:40:32.358Z,29.90
2022-11-14T19:43:39.320Z,30.10
2022-11-14T19:46:47.773Z,29.77
2022-11-14T19:49:56.135Z,37.30
2022-11-14T19:53:02.374Z,42.03
2022-11-14T19:56:09.810Z,45.63
2022-11-14T19:59:19.057Z,45.60
2022-11-14T20:02:29.639Z,48.33
2022-11-14T20:05:38.503Z,46.50
2022-11-14T20:08:44.560Z,45.60
2022-11-14T20:11:50.706Z,42.63
2022-11-14T20:14:57.270Z,42.53
2022-11-14T20:18:03.953Z,36.53
2022-11-14T20:21:14.153Z,35.97
2022-11-14T20:24:22.543Z,34.93
2022-11-14T20:27:28.902Z,36.87
2022-11-14T20:30:35.246Z,33.73
2022-11-14T20:33:43.087Z,34.43
2022-11-14T20:40:17.805Z,30.53
2022-11-14T20:43:24.067Z,30.67
2022-11-14T20:46:30.501Z,32.37
2022-11-14T20:49:36.527Z,30.63
2022-11-14T20:52:46.031Z,32.57
2022-11-14T20:55:54.844Z,32.20
2022-11-14T20:59:01.401Z,32.37
2022-11-14T21:02:07.944Z,28.97
2022-11-14T21:05:14.277Z,32.73
2022-11-14T21:08:21.738Z,31.63
2022-11-14T21:11:28.005Z,28.67
2022-11-14T21:14:34.313Z,26.93
2022-11-14T21:17:40.543Z,26.93
2022-11-14T21:20:46.888Z,30.30
2022-11-14T21:23:55.436Z,31.93
2022-11-14T21:27:01.635Z,29.97
2022-11-14T21:30:09.429Z,33.53
2022-11-14T21:33:15.523Z,36.70
2022-11-14T21:36:43.861Z,35.37
2022-11-14T21:39:49.379Z,37.23
2022-11-14T21:42:55.951Z,34.40
2022-11-14T21:46:03.370Z,35.33
2022-11-14T21:49:10.141Z,38.33
2022-11-14T21:52:16.373Z,38.47
2022-11-14T21:55:23.958Z,35.90
2022-11-14T21:58:32.073Z,34.73
2022-11-14T22:01:55.771Z,32.13
2022-11-14T22:05:02.112Z,31.23
2022-11-14T22:08:08.376Z,33.10
2022-11-14T22:11:15.898Z,34.40
2022-11-14T22:14:22.446Z,33.20
2022-11-14T22:17:29.373Z,34.17
2022-11-14T22:20:35.444Z,35.67
2022-11-14T22:23:43.882Z,39.57
2022-11-14T22:26:51.335Z,45.10
2022-11-14T22:29:57.275Z,37.33
2022-11-14T22:33:03.949Z,34.83
2022-11-14T22:36:13.989Z,37.00
2022-11-14T22:39:20.251Z,39.83
2022-11-14T22:42:28.085Z,37.50
2022-11-14T22:45:34.197Z,36.87
2022-11-14T22:48:40.336Z,35.70
2022-11-14T22:51:46.533Z,33.30
2022-11-14T22:54:52.870Z,32.17
2022-11-14T22:58:01.411Z,28.17
2022-11-14T23:01:12.557Z,29.43
2022-11-14T23:04:19.123Z,31.93
2022-11-14T23:07:26.906Z,33.65
2022-11-14T23:10:35.390Z,34.47
2022-11-14T23:13:43.913Z,31.97
2022-11-14T23:16:50.418Z,32.70
